Time;durP1;ratioP1;P1;durP2;ratioP2;P2;SDS_P1;SDS_P2;PMS_P1;PMS_P2;Temp;Humidity;BMP_temperature;BMP_pressure;BME280_temperature;BME280_humidity;BME280_pressure;Samples;Min_cycle;Max_cycle;Signal;HPM_P1;HPM_P2
2023/04/25 00:02:06;;;;;;;2.53;2.33;;;;;;;;;;5046178;28;20304;-52
2023/04/25 00:04:33;;;;;;;3.67;2.60;;;;;;;;;;5045745;28;20230;-53
2023/04/25 00:07:01;;;;;;;4.27;2.20;;;;;;;;;;5046856;28;20743;-51
2023/04/25 00:09:28;;;;;;;4.73;2.33;;;;;;;;;;5043699;28;20240;-52
2023/04/25 00:11:55;;;;;;;2.33;2.10;;;;;;;;;;5045810;28;20920;-51
2023/04/25 00:14:22;;;;;;;3.10;2.27;;;;;;;;;;5042651;28;20248;-50
2023/04/25 00:16:51;;;;;;;2.60;1.80;;;;;;;;;;5044521;28;20228;-51
2023/04/25 00:19:18;;;;;;;2.30;2.07;;;;;;;;;;5046449;28;20255;-52
2023/04/25 00:21:46;;;;;;;7.30;2.63;;;;;;;;;;5043484;28;21214;-51
2023/04/25 00:24:12;;;;;;;2.57;2.27;;;;;;;;;;5044863;28;20232;-51
2023/04/25 00:26:39;;;;;;;5.77;2.17;;;;;;;;;;5041515;28;20311;-51
2023/04/25 00:29:07;;;;;;;5.20;2.53;;;;;;;;;;5043980;28;20232;-51
2023/04/25 00:31:34;;;;;;;4.43;2.53;;;;;;;;;;5044691;28;20243;-50
2023/04/25 00:34:00;;;;;;;3.63;2.40;;;;;;;;;;5040239;28;20630;-52
2023/04/25 00:36:27;;;;;;;3.50;2.27;;;;;;;;;;5041067;28;20256;-52
2023/04/25 00:38:54;;;;;;;3.23;2.23;;;;;;;;;;5045094;28;20240;-51
2023/04/25 00:41:20;;;;;;;2.67;2.03;;;;;;;;;;5043793;28;20242;-51
2023/04/25 00:43:48;;;;;;;4.43;2.50;;;;;;;;;;5040308;28;20228;-51
2023/04/25 00:46:16;;;;;;;4.17;2.20;;;;;;;;;;5039135;28;20317;-50
2023/04/25 00:48:43;;;;;;;3.10;2.50;;;;;;;;;;5033921;28;20617;-50
2023/04/25 00:51:11;;;;;;;4.17;2.50;;;;;;;;;;5043332;28;20236;-51
2023/04/25 00:53:38;;;;;;;5.33;2.33;;;;;;;;;;5039448;28;20754;-50
2023/04/25 00:56:05;;;;;;;3.17;2.87;;;;;;;;;;5048528;28;20468;-51
2023/04/25 00:58:32;;;;;;;4.77;2.70;;;;;;;;;;5037557;28;20578;-50
2023/04/25 01:01:00;;;;;;;5.67;3.03;;;;;;;;;;5043305;28;20675;-53
2023/04/25 01:03:28;;;;;;;7.43;3.10;;;;;;;;;;5041622;28;20281;-52
2023/04/25 01:05:55;;;;;;;3.83;2.90;;;;;;;;;;5040390;28;20255;-52
2023/04/25 01:08:22;;;;;;;2.73;2.20;;;;;;;;;;5039458;28;20853;-52
2023/04/25 01:10:48;;;;;;;5.00;2.73;;;;;;;;;;5043101;28;20224;-53
2023/04/25 01:13:15;;;;;;;6.40;2.43;;;;;;;;;;5043339;28;20308;-51
2023/04/25 01:15:41;;;;;;;7.53;2.37;;;;;;;;;;5039258;28;20637;-51
2023/04/25 01:18:08;;;;;;;4.10;2.80;;;;;;;;;;5038432;28;20248;-52
2023/04/25 01:20:38;;;;;;;3.83;2.80;;;;;;;;;;5038694;28;20235;-52
2023/04/25 01:23:06;;;;;;;3.00;2.13;;;;;;;;;;5042423;28;20293;-53
2023/04/25 01:25:33;;;;;;;8.60;2.93;;;;;;;;;;5046232;28;20227;-52
2023/04/25 01:27:59;;;;;;;4.23;2.67;;;;;;;;;;5041907;28;20239;-51
2023/04/25 01:30:27;;;;;;;3.00;2.40;;;;;;;;;;5040507;28;20719;-50
2023/04/25 01:32:55;;;;;;;3.60;2.60;;;;;;;;;;5042756;28;20231;-50
2023/04/25 01:35:23;;;;;;;7.70;3.43;;;;;;;;;;5043491;28;20220;-52
2023/04/25 01:37:52;;;;;;;5.90;3.47;;;;;;;;;;5037229;28;20224;-50
2023/04/25 01:40:21;;;;;;;4.97;2.80;;;;;;;;;;5035316;28;20242;-53
2023/04/25 01:42:48;;;;;;;6.50;3.77;;;;;;;;;;5044056;28;20238;-51
2023/04/25 01:45:15;;;;;;;4.77;2.90;;;;;;;;;;5036756;28;20603;-53
2023/04/25 01:47:43;;;;;;;6.50;2.87;;;;;;;;;;5039107;28;20239;-51
2023/04/25 01:50:10;;;;;;;4.23;3.53;;;;;;;;;;5042594;28;20262;-51
2023/04/25 01:52:37;;;;;;;5.97;2.90;;;;;;;;;;5042342;28;20714;-51
2023/04/25 01:55:04;;;;;;;3.50;3.10;;;;;;;;;;5045785;28;20235;-51
2023/04/25 01:57:32;;;;;;;3.90;2.97;;;;;;;;;;5047591;28;20224;-51
2023/04/25 02:00:00;;;;;;;4.47;3.23;;;;;;;;;;5046353;28;20319;-51
2023/04/25 02:02:27;;;;;;;8.07;3.70;;;;;;;;;;5055664;28;20283;-53
2023/04/25 02:04:54;;;;;;;6.73;3.00;;;;;;;;;;5055804;28;20297;-53
2023/04/25 02:07:20;;;;;;;3.87;3.07;;;;;;;;;;5053101;28;20808;-51
2023/04/25 02:09:47;;;;;;;6.30;4.27;;;;;;;;;;5042804;28;20318;-51
2023/04/25 02:12:14;;;;;;;5.07;3.40;;;;;;;;;;5044045;28;20232;-51
2023/04/25 02:14:42;;;;;;;6.70;3.70;;;;;;;;;;5042163;28;20235;-53
2023/04/25 02:17:08;;;;;;;5.13;3.00;;;;;;;;;;5037495;28;20259;-52
2023/04/25 02:19:35;;;;;;;6.40;3.77;;;;;;;;;;5043372;28;20761;-51
2023/04/25 02:22:01;;;;;;;4.17;3.00;;;;;;;;;;5043113;28;20243;-51
2023/04/25 02:24:28;;;;;;;8.37;3.97;;;;;;;;;;5044336;28;20235;-51
2023/04/25 02:26:55;;;;;;;4.33;3.77;;;;;;;;;;5041360;28;20228;-51
2023/04/25 02:29:22;;;;;;;7.53;4.67;;;;;;;;;;5042772;28;20351;-52
2023/04/25 02:31:50;;;;;;;9.03;3.57;;;;;;;;;;5044463;28;20240;-53
2023/04/25 02:34:17;;;;;;;6.93;3.53;;;;;;;;;;5043584;28;20261;-52
2023/04/25 02:36:43;;;;;;;7.50;4.30;;;;;;;;;;5041182;28;20929;-50
2023/04/25 02:39:11;;;;;;;5.53;3.60;;;;;;;;;;5041512;28;20236;-51
2023/04/25 02:41:37;;;;;;;7.00;3.60;;;;;;;;;;5045893;28;20274;-51
2023/04/25 02:44:04;;;;;;;8.40;3.10;;;;;;;;;;5043818;28;20282;-53
2023/04/25 02:46:30;;;;;;;7.60;3.30;;;;;;;;;;5045956;28;20257;-51
2023/04/25 02:48:58;;;;;;;4.37;2.90;;;;;;;;;;5044897;28;20235;-53
2023/04/25 02:51:26;;;;;;;7.37;3.87;;;;;;;;;;5046370;28;20242;-51
2023/04/25 02:53:52;;;;;;;6.77;4.10;;;;;;;;;;5046352;28;20258;-53
2023/04/25 02:56:19;;;;;;;5.93;3.83;;;;;;;;;;5046327;28;20267;-52
2023/04/25 02:58:46;;;;;;;6.97;3.67;;;;;;;;;;5044681;28;20239;-52
2023/04/25 03:01:12;;;;;;;6.23;3.70;;;;;;;;;;5045935;28;20602;-50
2023/04/25 03:03:38;;;;;;;5.63;3.67;;;;;;;;;;5047237;28;20746;-53
2023/04/25 03:06:07;;;;;;;4.00;3.60;;;;;;;;;;5048229;28;20271;-51
2023/04/25 03:08:34;;;;;;;7.07;3.67;;;;;;;;;;5049109;28;20864;-53
2023/04/25 03:11:00;;;;;;;4.70;3.30;;;;;;;;;;5048038;28;20235;-51
2023/04/25 03:13:29;;;;;;;8.60;4.70;;;;;;;;;;5046211;28;20232;-52
2023/04/25 03:15:56;;;;;;;4.17;3.73;;;;;;;;;;5040802;28;20444;-53
2023/04/25 03:18:22;;;;;;;5.00;3.03;;;;;;;;;;5043944;28;20693;-52
2023/04/25 03:20:49;;;;;;;6.63;3.67;;;;;;;;;;5047083;28;20595;-50
2023/04/25 03:23:17;;;;;;;7.03;4.07;;;;;;;;;;5047127;28;20323;-52
2023/04/25 03:25:44;;;;;;;9.27;3.63;;;;;;;;;;5043851;28;20318;-51
2023/04/25 03:28:10;;;;;;;9.17;4.00;;;;;;;;;;5044179;28;20243;-51
2023/04/25 03:30:37;;;;;;;4.13;3.70;;;;;;;;;;5046456;28;20310;-52
2023/04/25 03:33:03;;;;;;;10.03;4.57;;;;;;;;;;5038966;28;20247;-53
2023/04/25 03:35:30;;;;;;;9.07;3.90;;;;;;;;;;5045568;28;20315;-51
2023/04/25 03:37:56;;;;;;;5.33;3.93;;;;;;;;;;5041060;28;20310;-52
2023/04/25 03:40:24;;;;;;;6.50;3.80;;;;;;;;;;5046772;28;20256;-52
2023/04/25 03:42:51;;;;;;;6.10;3.87;;;;;;;;;;5041422;28;20236;-51
2023/04/25 03:45:17;;;;;;;5.67;3.80;;;;;;;;;;5044408;28;20293;-52
2023/04/25 03:47:44;;;;;;;4.47;3.63;;;;;;;;;;5041929;28;20262;-51
2023/04/25 03:50:11;;;;;;;8.23;4.20;;;;;;;;;;5043316;28;20776;-51
2023/04/25 03:52:37;;;;;;;5.30;4.27;;;;;;;;;;5044062;28;20236;-51
2023/04/25 03:55:05;;;;;;;7.40;4.17;;;;;;;;;;5044402;28;20314;-53
2023/04/25 03:57:33;;;;;;;9.63;3.83;;;;;;;;;;5041216;28;20244;-51
2023/04/25 04:00:00;;;;;;;7.77;3.97;;;;;;;;;;5067326;28;20717;-51
2023/04/25 04:02:26;;;;;;;7.53;4.00;;;;;;;;;;5043164;28;20289;-52
2023/04/25 04:04:53;;;;;;;4.70;3.70;;;;;;;;;;5046681;28;20371;-52
2023/04/25 04:07:19;;;;;;;4.47;3.40;;;;;;;;;;5045761;28;20768;-51
2023/04/25 04:09:46;;;;;;;4.37;3.70;;;;;;;;;;5045757;28;20324;-50
2023/04/25 04:12:12;;;;;;;6.60;3.97;;;;;;;;;;5045562;28;20258;-58
2023/04/25 04:14:40;;;;;;;8.53;3.87;;;;;;;;;;5049784;28;20236;-52
2023/04/25 04:17:07;;;;;;;6.10;4.00;;;;;;;;;;5051041;28;20251;-52
2023/04/25 04:19:34;;;;;;;8.50;4.17;;;;;;;;;;5046113;28;20333;-52
2023/04/25 04:22:00;;;;;;;4.57;3.63;;;;;;;;;;5044487;28;20237;-51
2023/04/25 04:24:27;;;;;;;4.27;3.77;;;;;;;;;;5049710;28;20236;-52
2023/04/25 04:26:54;;;;;;;4.33;3.93;;;;;;;;;;5049300;28;20656;-51
2023/04/25 04:29:21;;;;;;;3.87;3.17;;;;;;;;;;5044632;28;20315;-52
2023/04/25 04:31:50;;;;;;;7.07;3.70;;;;;;;;;;5039959;28;20259;-52
2023/04/25 04:34:17;;;;;;;5.97;3.47;;;;;;;;;;5042731;28;20285;-55
2023/04/25 04:36:44;;;;;;;6.37;3.70;;;;;;;;;;5039273;28;21746;-52
2023/04/25 04:39:11;;;;;;;4.60;3.40;;;;;;;;;;5043615;28;20227;-51
2023/04/25 04:41:38;;;;;;;6.30;3.60;;;;;;;;;;5042564;28;20243;-53
2023/04/25 04:44:06;;;;;;;4.43;3.57;;;;;;;;;;5040261;28;20326;-52
2023/04/25 04:46:37;;;;;;;4.50;3.03;;;;;;;;;;5041104;28;20231;-52
2023/04/25 04:49:05;;;;;;;3.57;3.17;;;;;;;;;;5041972;28;20322;-51
2023/04/25 04:51:32;;;;;;;4.77;3.60;;;;;;;;;;5040187;28;20324;-50
2023/04/25 04:54:02;;;;;;;7.40;3.63;;;;;;;;;;5042827;28;20232;-52
2023/04/25 04:56:29;;;;;;;7.83;3.63;;;;;;;;;;5037929;28;20255;-51
2023/04/25 04:58:56;;;;;;;5.47;3.50;;;;;;;;;;5040215;28;20227;-51
2023/04/25 05:01:23;;;;;;;4.50;3.40;;;;;;;;;;5042191;28;20231;-52
2023/04/25 05:03:50;;;;;;;9.43;3.53;;;;;;;;;;5044935;28;20381;-50
2023/04/25 05:06:19;;;;;;;5.97;3.87;;;;;;;;;;5046505;28;20234;-51
2023/04/25 05:08:45;;;;;;;5.40;3.63;;;;;;;;;;5036738;28;20231;-52
2023/04/25 05:11:12;;;;;;;8.57;3.43;;;;;;;;;;5044405;28;20244;-51
2023/04/25 05:13:38;;;;;;;7.03;3.50;;;;;;;;;;5049011;28;20239;-51
2023/04/25 05:16:05;;;;;;;7.37;3.63;;;;;;;;;;5044833;28;20718;-52
2023/04/25 05:18:32;;;;;;;6.57;3.60;;;;;;;;;;5044917;28;20314;-52
2023/04/25 05:20:58;;;;;;;6.00;3.97;;;;;;;;;;5043588;28;20822;-51
2023/04/25 05:23:28;;;;;;;7.00;3.93;;;;;;;;;;5046176;28;20227;-51
2023/04/25 05:25:54;;;;;;;6.20;3.97;;;;;;;;;;5044792;28;20313;-51
2023/04/25 05:28:21;;;;;;;5.63;3.70;;;;;;;;;;5040121;28;20707;-52
2023/04/25 05:30:47;;;;;;;6.30;3.90;;;;;;;;;;5040787;28;20236;-51
2023/04/25 05:33:14;;;;;;;5.53;3.67;;;;;;;;;;5043395;28;20228;-52
2023/04/25 05:35:41;;;;;;;5.80;4.07;;;;;;;;;;5042975;28;20653;-52
2023/04/25 05:38:07;;;;;;;8.37;3.43;;;;;;;;;;5039900;28;20257;-51
2023/04/25 05:40:36;;;;;;;4.80;3.67;;;;;;;;;;5041560;28;20236;-51
2023/04/25 05:43:02;;;;;;;8.00;3.80;;;;;;;;;;5042049;28;20256;-50
2023/04/25 05:45:29;;;;;;;7.00;4.37;;;;;;;;;;5045402;28;20227;-53
2023/04/25 05:47:56;;;;;;;5.47;4.27;;;;;;;;;;5041729;28;20643;-53
2023/04/25 05:50:22;;;;;;;5.67;4.27;;;;;;;;;;5041753;28;20283;-52
2023/04/25 05:52:49;;;;;;;9.00;4.17;;;;;;;;;;5042491;28;20318;-51
2023/04/25 05:55:15;;;;;;;7.87;4.23;;;;;;;;;;5044039;28;20239;-51
2023/04/25 05:57:44;;;;;;;6.53;4.63;;;;;;;;;;5039621;28;20244;-49
2023/04/25 06:00:12;;;;;;;6.83;4.30;;;;;;;;;;5041793;28;20330;-51
2023/04/25 06:02:39;;;;;;;6.23;4.10;;;;;;;;;;5042745;28;20227;-51
2023/04/25 06:05:06;;;;;;;5.53;4.40;;;;;;;;;;5043525;28;20261;-52
2023/04/25 06:07:33;;;;;;;9.47;4.87;;;;;;;;;;5044532;28;20669;-51
2023/04/25 06:10:00;;;;;;;7.27;4.37;;;;;;;;;;5044048;28;20236;-51
2023/04/25 06:12:27;;;;;;;9.43;4.23;;;;;;;;;;5048395;28;20228;-52
2023/04/25 06:14:55;;;;;;;6.93;4.50;;;;;;;;;;5050641;28;20663;-52
2023/04/25 06:17:22;;;;;;;9.13;5.57;;;;;;;;;;5045021;28;20235;-51
2023/04/25 06:19:48;;;;;;;6.13;5.53;;;;;;;;;;5043119;28;20223;-52
2023/04/25 06:22:15;;;;;;;6.40;4.50;;;;;;;;;;5052939;28;20274;-51
2023/04/25 06:24:41;;;;;;;8.57;4.67;;;;;;;;;;5049449;28;20757;-51
2023/04/25 06:27:08;;;;;;;6.60;4.43;;;;;;;;;;5049520;28;20278;-52
2023/04/25 06:29:35;;;;;;;9.10;4.90;;;;;;;;;;5046014;28;20227;-57
2023/04/25 06:32:03;;;;;;;8.23;4.93;;;;;;;;;;5047108;28;20780;-53
2023/04/25 06:34:29;;;;;;;11.77;7.30;;;;;;;;;;5052134;28;20799;-54
2023/04/25 06:36:56;;;;;;;8.20;4.47;;;;;;;;;;5045837;28;20232;-52
2023/04/25 06:39:23;;;;;;;11.60;5.17;;;;;;;;;;5047494;28;20677;-51
2023/04/25 06:41:49;;;;;;;7.13;4.30;;;;;;;;;;5047691;28;20259;-50
2023/04/25 06:44:16;;;;;;;8.50;4.87;;;;;;;;;;5046694;28;20740;-51
2023/04/25 06:46:43;;;;;;;7.23;4.80;;;;;;;;;;5042785;28;20231;-52
2023/04/25 06:49:11;;;;;;;8.57;5.07;;;;;;;;;;5045758;28;20293;-51
2023/04/25 06:51:37;;;;;;;6.87;5.53;;;;;;;;;;5045199;28;20236;-51
2023/04/25 06:54:05;;;;;;;7.67;4.70;;;;;;;;;;5043823;28;20323;-52
2023/04/25 06:56:31;;;;;;;9.27;5.20;;;;;;;;;;5046405;28;20236;-51
2023/04/25 06:59:00;;;;;;;6.87;4.23;;;;;;;;;;5044785;28;20236;-52
2023/04/25 07:01:26;;;;;;;7.37;5.10;;;;;;;;;;5038391;28;20232;-53
2023/04/25 07:03:53;;;;;;;9.60;5.80;;;;;;;;;;5044916;28;20328;-52
2023/04/25 07:06:21;;;;;;;8.40;4.67;;;;;;;;;;5037710;28;20264;-50
2023/04/25 07:08:47;;;;;;;6.47;4.30;;;;;;;;;;5028402;28;20247;-50
2023/04/25 07:11:14;;;;;;;5.70;4.13;;;;;;;;;;5043920;28;20232;-52
2023/04/25 07:13:41;;;;;;;7.63;4.37;;;;;;;;;;5042698;28;20235;-51
2023/04/25 07:16:07;;;;;;;9.53;4.50;;;;;;;;;;5046562;28;20765;-59
2023/04/25 07:18:34;;;;;;;7.47;4.77;;;;;;;;;;5051677;28;20295;-53
2023/04/25 07:21:00;;;;;;;8.20;4.63;;;;;;;;;;5042680;28;20332;-54
2023/04/25 07:23:28;;;;;;;5.53;4.17;;;;;;;;;;5049129;28;20238;-52
2023/04/25 07:25:55;;;;;;;13.43;4.57;;;;;;;;;;5051353;28;20253;-51
2023/04/25 07:28:22;;;;;;;8.60;4.50;;;;;;;;;;5052922;28;20259;-51
2023/04/25 07:30:48;;;;;;;5.23;3.50;;;;;;;;;;5045059;28;20235;-55
2023/04/25 07:33:15;;;;;;;7.57;4.33;;;;;;;;;;5045128;28;20252;-52
2023/04/25 07:35:41;;;;;;;6.50;4.17;;;;;;;;;;5043701;28;20305;-51
2023/04/25 07:38:08;;;;;;;10.77;4.10;;;;;;;;;;5042473;28;20255;-53
2023/04/25 07:40:36;;;;;;;5.70;4.27;;;;;;;;;;5044648;28;20427;-52
2023/04/25 07:43:02;;;;;;;8.60;4.23;;;;;;;;;;5045541;28;20240;-53
2023/04/25 07:45:29;;;;;;;9.83;4.17;;;;;;;;;;5044851;28;20586;-53
2023/04/25 07:47:55;;;;;;;10.23;3.43;;;;;;;;;;5043850;28;20235;-50
2023/04/25 07:50:22;;;;;;;7.20;3.57;;;;;;;;;;5042383;28;20632;-52
2023/04/25 07:52:48;;;;;;;9.20;3.77;;;;;;;;;;5044940;28;20232;-51
2023/04/25 07:55:16;;;;;;;8.83;3.90;;;;;;;;;;5045245;28;20661;-53
2023/04/25 07:57:43;;;;;;;7.93;3.80;;;;;;;;;;5044329;28;20248;-54
2023/04/25 08:00:11;;;;;;;8.23;3.47;;;;;;;;;;5029278;28;21220;-51
2023/04/25 08:02:38;;;;;;;8.63;3.23;;;;;;;;;;5046620;28;20237;-51
2023/04/25 08:05:06;;;;;;;10.37;4.10;;;;;;;;;;5045195;28;20228;-51
2023/04/25 08:07:33;;;;;;;10.47;3.97;;;;;;;;;;5036990;28;20232;-53
2023/04/25 08:09:59;;;;;;;6.67;2.70;;;;;;;;;;5043356;28;20232;-51
2023/04/25 08:12:26;;;;;;;13.43;4.30;;;;;;;;;;5047321;28;20235;-52
2023/04/25 08:14:53;;;;;;;6.83;3.83;;;;;;;;;;5046242;28;20326;-52
2023/04/25 08:17:20;;;;;;;12.90;4.70;;;;;;;;;;5036824;28;20228;-51
2023/04/25 08:19:47;;;;;;;14.77;4.30;;;;;;;;;;5037323;28;20430;-52
2023/04/25 08:22:14;;;;;;;8.77;3.27;;;;;;;;;;5038811;28;20240;-52
2023/04/25 08:24:40;;;;;;;8.47;3.83;;;;;;;;;;5045226;28;20244;-52
2023/04/25 08:27:07;;;;;;;10.57;3.23;;;;;;;;;;5041693;28;20239;-54
2023/04/25 08:29:34;;;;;;;11.13;4.13;;;;;;;;;;5039646;28;20231;-52
2023/04/25 08:32:02;;;;;;;10.77;3.73;;;;;;;;;;5043565;28;20656;-53
2023/04/25 08:34:29;;;;;;;10.83;3.30;;;;;;;;;;5034972;28;20235;-52
2023/04/25 08:36:55;;;;;;;8.83;3.70;;;;;;;;;;5044083;28;20232;-52
2023/04/25 08:39:22;;;;;;;8.17;4.30;;;;;;;;;;5046110;28;20232;-53
2023/04/25 08:41:48;;;;;;;10.70;3.50;;;;;;;;;;5045795;28;20305;-52
2023/04/25 08:44:15;;;;;;;10.27;3.77;;;;;;;;;;5044726;28;20645;-51
2023/04/25 08:46:42;;;;;;;8.00;3.17;;;;;;;;;;5051028;28;20255;-52
2023/04/25 08:49:10;;;;;;;17.77;2.97;;;;;;;;;;5056403;28;20235;-52
2023/04/25 08:51:41;;;;;;;11.40;3.40;;;;;;;;;;5056002;28;20231;-53
2023/04/25 08:54:09;;;;;;;10.47;4.17;;;;;;;;;;5048923;28;20228;-62
2023/04/25 08:56:36;;;;;;;16.13;8.60;;;;;;;;;;5045170;28;20316;-52
2023/04/25 08:59:03;;;;;;;10.13;3.40;;;;;;;;;;5046212;28;20226;-53
2023/04/25 09:01:30;;;;;;;6.60;2.80;;;;;;;;;;5045424;28;20247;-52
2023/04/25 09:03:58;;;;;;;8.10;3.13;;;;;;;;;;5044348;28;20231;-51
2023/04/25 09:06:26;;;;;;;5.93;3.17;;;;;;;;;;5043927;28;20235;-52
2023/04/25 09:08:52;;;;;;;11.30;3.27;;;;;;;;;;5042113;28;20228;-51
2023/04/25 09:11:19;;;;;;;7.47;2.93;;;;;;;;;;5040467;28;20231;-52
2023/04/25 09:13:46;;;;;;;5.87;2.60;;;;;;;;;;5042954;28;20247;-51
2023/04/25 09:16:14;;;;;;;7.37;2.40;;;;;;;;;;5042155;28;20228;-52
2023/04/25 09:18:41;;;;;;;6.27;3.27;;;;;;;;;;5044859;28;20232;-51
2023/04/25 09:21:08;;;;;;;9.20;2.70;;;;;;;;;;5043332;28;20262;-50
2023/04/25 09:23:41;;;;;;;9.40;3.37;;;;;;;;;;5045050;28;20235;-53
2023/04/25 09:26:08;;;;;;;11.17;3.17;;;;;;;;;;5041328;28;20707;-52
2023/04/25 09:28:35;;;;;;;9.23;2.92;;;;;;;;;;5045620;28;20310;-51
2023/04/25 09:31:02;;;;;;;8.40;2.70;;;;;;;;;;5043744;28;20240;-52
2023/04/25 09:33:30;;;;;;;5.68;2.25;;;;;;;;;;5045265;28;20270;-51
2023/04/25 09:36:02;;;;;;;2.50;1.70;;;;;;;;;;5044426;28;20228;-51
2023/04/25 09:38:30;;;;;;;3.70;1.90;;;;;;;;;;5040926;28;20254;-50
2023/04/25 09:41:00;;;;;;;7.33;2.43;;;;;;;;;;5041931;28;20236;-52
2023/04/25 09:43:27;;;;;;;8.13;2.80;;;;;;;;;;5043304;28;20227;-52
2023/04/25 09:45:57;;;;;;;6.83;3.33;;;;;;;;;;5041435;28;20240;-51
2023/04/25 09:48:24;;;;;;;9.47;2.67;;;;;;;;;;5044035;28;20325;-50
2023/04/25 09:51:04;;;;;;;8.37;2.63;;;;;;;;;;5039322;28;20236;-51
2023/04/25 09:53:31;;;;;;;6.90;2.60;;;;;;;;;;5042939;28;20259;-52
2023/04/25 09:56:00;;;;;;;7.60;2.17;;;;;;;;;;5042462;28;20319;-50
2023/04/25 09:58:30;;;;;;;5.10;2.53;;;;;;;;;;5042414;28;20228;-50
2023/04/25 10:00:59;;;;;;;9.50;2.50;;;;;;;;;;5042566;28;20760;-50
2023/04/25 10:03:26;;;;;;;6.53;2.83;;;;;;;;;;5046207;28;20232;-50
2023/04/25 10:05:54;;;;;;;10.00;3.43;;;;;;;;;;5041458;28;20705;-52
2023/04/25 10:08:20;;;;;;;7.00;2.73;;;;;;;;;;5043554;28;20232;-52
2023/04/25 10:10:47;;;;;;;4.67;2.53;;;;;;;;;;5039842;28;20693;-51
2023/04/25 10:13:16;;;;;;;5.93;2.50;;;;;;;;;;5040679;28;20266;-52
2023/04/25 10:15:42;;;;;;;12.27;2.55;;;;;;;;;;5042789;28;20266;-53
2023/04/25 10:18:09;;;;;;;4.78;1.88;;;;;;;;;;5038255;28;20267;-50
2023/04/25 10:20:36;;;;;;;4.50;2.22;;;;;;;;;;5042146;28;20236;-51
2023/04/25 10:23:07;;;;;;;5.63;2.85;;;;;;;;;;5041758;28;20239;-51
2023/04/25 10:25:34;;;;;;;11.25;2.60;;;;;;;;;;5036596;28;20236;-52
2023/04/25 10:28:01;;;;;;;6.70;2.80;;;;;;;;;;5041356;28;20236;-53
2023/04/25 10:30:29;;;;;;;7.18;2.13;;;;;;;;;;5042654;28;20232;-51
2023/04/25 10:32:56;;;;;;;5.37;2.30;;;;;;;;;;5041182;28;20246;-51
2023/04/25 10:35:25;;;;;;;10.43;2.80;;;;;;;;;;5037371;28;20228;-52
2023/04/25 10:38:03;;;;;;;5.70;2.00;;;;;;;;;;5042851;28;20311;-52
2023/04/25 10:40:29;;;;;;;11.43;3.13;;;;;;;;;;5040239;28;20716;-51
2023/04/25 10:42:56;;;;;;;9.07;2.77;;;;;;;;;;5036738;28;20228;-50
2023/04/25 10:45:23;;;;;;;10.13;2.40;;;;;;;;;;5042713;28;20471;-50
2023/04/25 10:47:51;;;;;;;3.00;2.03;;;;;;;;;;5043295;28;20315;-51
2023/04/25 10:50:18;;;;;;;5.07;2.23;;;;;;;;;;5045302;28;20250;-51
2023/04/25 10:52:45;;;;;;;3.60;1.80;;;;;;;;;;5046124;28;20244;-52
2023/04/25 10:55:11;;;;;;;6.38;2.72;;;;;;;;;;5046324;28;20254;-51
2023/04/25 10:57:39;;;;;;;7.50;2.70;;;;;;;;;;5047007;28;20336;-51
2023/04/25 11:00:09;;;;;;;6.15;2.00;;;;;;;;;;5045703;28;20229;-50
2023/04/25 11:02:38;;;;;;;3.53;1.88;;;;;;;;;;5044697;28;20243;-52
2023/04/25 11:05:06;;;;;;;3.75;1.30;;;;;;;;;;5046137;28;21028;-53
2023/04/25 11:07:36;;;;;;;5.53;2.50;;;;;;;;;;5054728;28;20299;-56
2023/04/25 11:10:04;;;;;;;4.40;2.00;;;;;;;;;;5054265;28;20255;-53
2023/04/25 11:12:31;;;;;;;3.47;2.07;;;;;;;;;;5053906;28;20365;-54
2023/04/25 11:15:01;;;;;;;9.47;2.73;;;;;;;;;;5057493;28;20239;-51
2023/04/25 11:17:28;;;;;;;14.10;2.60;;;;;;;;;;5050882;28;20232;-50
2023/04/25 11:19:55;;;;;;;4.43;2.30;;;;;;;;;;5041984;28;20235;-51
2023/04/25 11:22:23;;;;;;;2.90;1.87;;;;;;;;;;5045812;28;20317;-53
2023/04/25 11:24:50;;;;;;;6.00;1.97;;;;;;;;;;5046458;28;20236;-52
2023/04/25 11:27:17;;;;;;;6.43;2.47;;;;;;;;;;5043358;28;20242;-51
2023/04/25 11:29:43;;;;;;;8.87;1.87;;;;;;;;;;5044374;28;20228;-52
2023/04/25 11:32:10;;;;;;;3.80;2.03;;;;;;;;;;5044012;28;20244;-51
2023/04/25 11:34:36;;;;;;;4.00;1.93;;;;;;;;;;5046617;28;20223;-51
2023/04/25 11:37:03;;;;;;;6.30;2.13;;;;;;;;;;5043433;28;20236;-50
2023/04/25 11:39:32;;;;;;;4.97;1.70;;;;;;;;;;5045164;28;20224;-51
2023/04/25 11:41:58;;;;;;;7.97;2.80;;;;;;;;;;5044364;28;20243;-52
2023/04/25 11:44:25;;;;;;;7.60;2.13;;;;;;;;;;5047345;28;20240;-51
2023/04/25 11:46:51;;;;;;;8.10;2.67;;;;;;;;;;5043464;28;20768;-52
2023/04/25 11:49:18;;;;;;;5.00;2.20;;;;;;;;;;5045362;28;20619;-50
2023/04/25 11:51:46;;;;;;;5.43;2.40;;;;;;;;;;5046512;28;20246;-51
2023/04/25 11:54:12;;;;;;;4.17;1.73;;;;;;;;;;5046407;28;20228;-50
2023/04/25 11:56:43;;;;;;;5.10;2.33;;;;;;;;;;5043710;28;20239;-50
2023/04/25 11:59:09;;;;;;;5.13;2.07;;;;;;;;;;5039403;28;20299;-52
2023/04/25 12:01:36;;;;;;;5.27;2.27;;;;;;;;;;5042810;28;20232;-53
2023/04/25 12:04:13;;;;;;;5.20;2.70;;;;;;;;;;5043333;28;20227;-51
2023/04/25 12:06:40;;;;;;;6.70;2.43;;;;;;;;;;5042005;28;20235;-51
2023/04/25 12:09:08;;;;;;;5.97;2.20;;;;;;;;;;5039332;28;20228;-52
2023/04/25 12:11:41;;;;;;;7.30;2.20;;;;;;;;;;5042509;28;21168;-56
2023/04/25 12:14:09;;;;;;;8.50;2.93;;;;;;;;;;5042146;28;20251;-52
2023/04/25 12:16:43;;;;;;;6.33;2.47;;;;;;;;;;5041865;28;20319;-52
2023/04/25 12:19:09;;;;;;;4.23;1.80;;;;;;;;;;5043561;28;20242;-52
2023/04/25 12:21:36;;;;;;;7.30;2.53;;;;;;;;;;5041967;28;20793;-52
2023/04/25 12:24:13;;;;;;;3.67;1.97;;;;;;;;;;5045108;28;20643;-52
2023/04/25 12:26:49;;;;;;;3.43;2.20;;;;;;;;;;5043212;28;20714;-51
2023/04/25 12:29:18;;;;;;;5.37;1.97;;;;;;;;;;5043421;28;20666;-52
2023/04/25 12:31:46;;;;;;;6.10;2.97;;;;;;;;;;5041115;28;20244;-51
2023/04/25 12:34:12;;;;;;;4.47;2.27;;;;;;;;;;5043564;28;21477;-51
2023/04/25 12:36:39;;;;;;;8.20;2.60;;;;;;;;;;5041633;28;20241;-52
2023/04/25 12:39:06;;;;;;;5.80;2.07;;;;;;;;;;5042404;28;20231;-51
2023/04/25 12:41:33;;;;;;;7.13;2.30;;;;;;;;;;5041444;28;20246;-51
2023/04/25 12:43:59;;;;;;;4.70;2.10;;;;;;;;;;5042013;28;20284;-55
2023/04/25 12:46:27;;;;;;;4.97;2.83;;;;;;;;;;5054181;28;20327;-51
2023/04/25 12:48:55;;;;;;;2.13;1.60;;;;;;;;;;5047862;28;20315;-53
2023/04/25 12:51:24;;;;;;;5.13;2.37;;;;;;;;;;5046161;28;20251;-50
2023/04/25 12:53:51;;;;;;;5.67;2.47;;;;;;;;;;5048989;28;20237;-50
2023/04/25 12:56:18;;;;;;;3.33;1.43;;;;;;;;;;5041712;28;20616;-52
2023/04/25 12:58:44;;;;;;;6.00;1.80;;;;;;;;;;5040732;28;20238;-51
2023/04/25 13:01:12;;;;;;;2.83;2.20;;;;;;;;;;5041805;28;20242;-51
2023/04/25 13:03:40;;;;;;;5.40;1.90;;;;;;;;;;5046344;28;20246;-51
2023/04/25 13:06:07;;;;;;;3.00;2.13;;;;;;;;;;5042510;28;20239;-52
2023/04/25 13:08:33;;;;;;;6.40;2.43;;;;;;;;;;5038289;28;20293;-55
2023/04/25 13:11:00;;;;;;;3.70;1.60;;;;;;;;;;5041556;28;20969;-51
2023/04/25 13:13:27;;;;;;;2.70;1.50;;;;;;;;;;5040842;28;20318;-51
2023/04/25 13:15:53;;;;;;;3.50;1.40;;;;;;;;;;5040663;28;20293;-51
2023/04/25 13:18:20;;;;;;;5.93;1.70;;;;;;;;;;5040800;28;20247;-50
2023/04/25 13:20:48;;;;;;;4.10;2.67;;;;;;;;;;5038372;28;20231;-51
2023/04/25 13:23:14;;;;;;;4.47;1.73;;;;;;;;;;5042391;28;20255;-53
2023/04/25 13:25:41;;;;;;;7.33;1.60;;;;;;;;;;5043025;28;20938;-51
2023/04/25 13:28:08;;;;;;;3.17;1.40;;;;;;;;;;5043659;28;20293;-53
2023/04/25 13:30:34;;;;;;;2.90;1.37;;;;;;;;;;5041863;28;20745;-51
2023/04/25 13:33:02;;;;;;;3.57;2.03;;;;;;;;;;5041140;28;20239;-52
2023/04/25 13:35:30;;;;;;;2.73;1.63;;;;;;;;;;5043097;28;20924;-52
2023/04/25 13:37:58;;;;;;;5.77;1.70;;;;;;;;;;5040034;28;20236;-50
2023/04/25 13:40:25;;;;;;;5.93;1.57;;;;;;;;;;5040490;28;20282;-52
2023/04/25 13:42:52;;;;;;;2.92;1.63;;;;;;;;;;5034170;28;20227;-52
2023/04/25 13:45:18;;;;;;;7.87;2.83;;;;;;;;;;5037107;28;20242;-51
2023/04/25 13:47:45;;;;;;;10.20;1.97;;;;;;;;;;5041106;28;20244;-51
2023/04/25 13:50:13;;;;;;;3.08;2.03;;;;;;;;;;5040706;28;20231;-51
2023/04/25 13:52:39;;;;;;;6.53;2.22;;;;;;;;;;5047772;28;20278;-52
2023/04/25 13:55:08;;;;;;;6.80;2.20;;;;;;;;;;5041681;28;20856;-52
2023/04/25 13:57:34;;;;;;;5.82;2.03;;;;;;;;;;5039332;28;20285;-51
2023/04/25 14:00:04;;;;;;;5.88;1.52;;;;;;;;;;5039705;28;20227;-51
2023/04/25 14:02:31;;;;;;;5.90;2.28;;;;;;;;;;5041635;28;20231;-51
2023/04/25 14:04:57;;;;;;;4.80;1.73;;;;;;;;;;5040086;28;20259;-50
2023/04/25 14:07:24;;;;;;;3.90;2.30;;;;;;;;;;5038311;28;20603;-51
2023/04/25 14:09:50;;;;;;;4.73;2.07;;;;;;;;;;5039253;28;20257;-51
2023/04/25 14:12:18;;;;;;;5.93;2.00;;;;;;;;;;5042832;28;20642;-51
2023/04/25 14:14:45;;;;;;;1.87;1.23;;;;;;;;;;5042996;28;20247;-51
2023/04/25 14:17:11;;;;;;;4.77;1.70;;;;;;;;;;5043241;28;20255;-51
2023/04/25 14:19:43;;;;;;;2.87;1.87;;;;;;;;;;5047267;28;20294;-51
2023/04/25 14:22:09;;;;;;;3.07;1.30;;;;;;;;;;5045614;28;20707;-51
2023/04/25 14:24:36;;;;;;;2.20;1.73;;;;;;;;;;5051229;28;20237;-52
2023/04/25 14:27:02;;;;;;;2.53;1.47;;;;;;;;;;5057965;28;20232;-52
2023/04/25 14:29:30;;;;;;;2.67;1.57;;;;;;;;;;5052542;28;20242;-52
2023/04/25 14:31:58;;;;;;;4.60;1.60;;;;;;;;;;5041875;28;20446;-53
2023/04/25 14:34:25;;;;;;;2.60;1.33;;;;;;;;;;5044094;28;20301;-50
2023/04/25 14:36:52;;;;;;;1.90;1.37;;;;;;;;;;5040506;28;20479;-52
2023/04/25 14:39:19;;;;;;;4.43;1.93;;;;;;;;;;5041034;28;20246;-51
2023/04/25 14:41:46;;;;;;;5.73;1.33;;;;;;;;;;5046907;28;20239;-50